リヤド の空港の天気 - METARとTAF

キング・ハーリド国際空港(リヤド) ( OERK / RUH ) - サウジアラビア リヤド
飛行場実況気象(Metar)
観測時間11/30 20:00 AST (11/30 17:00 UTC)
風向・風速南東 2m/s
視程10km以上
天気現象
なし
気温22℃
湿度38%
気圧1019hPa
METAROERK 301700Z 14003KT CAVOK 22/07 Q1019 NOSIG
過去の天気等 Google飛行場航空写真 Wunderground天気予報

過去48時間のMETAR

飛行場予報(TAF)
発表時間: 11/30 20:00 AST (11/30 17:00 UTC)
予報対象時間: 30日21時 AST ~ 2日3時 AST
風向・風速南南東 3m/s
視程10km以上
少しの雲 雲底高度 1220m
1日6時 AST ~ 1日8時 AST に徐々に
風向・風速西 4m/s
視程10km以上
なし
1日17時 AST ~ 1日19時 AST に徐々に
風向・風速北北東 3m/s
TAF OERK 301700Z 3018/0124 16006KT 9999 FEW040
BECMG 0103/0105 28008KT CAVOK
BECMG 0114/0116 02006KT